createdAt,value
2018-07-12T00:00:14.833Z,1009.26
2018-07-12T00:01:14.833Z,1009.25
2018-07-12T00:02:14.831Z,1009.25
2018-07-12T00:03:14.831Z,1009.24
2018-07-12T00:04:14.840Z,1009.24
2018-07-12T00:05:14.834Z,1009.29
2018-07-12T00:06:14.831Z,1009.30
2018-07-12T00:07:14.830Z,1009.29
2018-07-12T00:08:14.830Z,1009.26
2018-07-12T00:09:14.833Z,1009.29
2018-07-12T00:10:14.826Z,1009.28
2018-07-12T00:11:14.832Z,1009.28
2018-07-12T00:12:14.829Z,1009.27
2018-07-12T00:13:14.827Z,1009.26
2018-07-12T00:14:14.831Z,1009.26
2018-07-12T00:15:14.831Z,1009.24
2018-07-12T00:16:14.830Z,1009.24
2018-07-12T00:17:14.829Z,1009.20
2018-07-12T00:18:14.830Z,1009.22
2018-07-12T00:19:14.831Z,1009.21
2018-07-12T00:20:14.828Z,1009.18
2018-07-12T00:21:15.089Z,1009.18
2018-07-12T00:22:14.827Z,1009.19
2018-07-12T00:23:14.826Z,1009.18
2018-07-12T00:24:14.826Z,1009.16
2018-07-12T00:25:14.826Z,1009.15
2018-07-12T00:26:14.826Z,1009.15
2018-07-12T00:27:14.822Z,1009.16
2018-07-12T00:28:14.827Z,1009.16
2018-07-12T00:29:14.825Z,1009.14
2018-07-12T00:30:14.825Z,1009.16
2018-07-12T00:31:14.825Z,1009.14
2018-07-12T00:32:14.826Z,1009.14
2018-07-12T00:33:14.825Z,1009.14
2018-07-12T00:34:14.825Z,1009.13
2018-07-12T00:35:14.825Z,1009.14
2018-07-12T00:36:14.833Z,1009.15
2018-07-12T00:37:14.826Z,1009.20
2018-07-12T00:38:14.825Z,1009.19
2018-07-12T00:39:14.824Z,1009.14
2018-07-12T00:40:14.825Z,1009.14
2018-07-12T00:41:14.827Z,1009.21
2018-07-12T00:42:14.825Z,1009.19
2018-07-12T00:43:14.828Z,1009.17
2018-07-12T00:44:14.828Z,1009.15
2018-07-12T00:45:14.829Z,1009.18
2018-07-12T00:46:14.828Z,1009.16
2018-07-12T00:47:14.825Z,1009.20
2018-07-12T00:48:14.828Z,1009.16
2018-07-12T00:49:14.831Z,1009.17
2018-07-12T00:50:14.826Z,1009.13
2018-07-12T00:51:14.829Z,1009.14
2018-07-12T00:52:14.828Z,1009.12
2018-07-12T00:53:14.829Z,1009.09
2018-07-12T00:54:14.820Z,1009.12
2018-07-12T00:55:14.846Z,1009.07
2018-07-12T00:56:15.071Z,1009.07
2018-07-12T00:57:14.822Z,1009.05
2018-07-12T00:58:14.825Z,1009.05
2018-07-12T00:59:14.830Z,1009.01
2018-07-12T01:00:14.826Z,1008.97
2018-07-12T01:01:14.827Z,1008.99
2018-07-12T01:02:14.826Z,1008.98
2018-07-12T01:03:14.827Z,1008.95
2018-07-12T01:04:14.827Z,1008.99
2018-07-12T01:05:14.827Z,1008.97
2018-07-12T01:06:14.827Z,1008.96
2018-07-12T01:07:14.832Z,1008.98
2018-07-12T01:08:14.828Z,1008.98
2018-07-12T01:09:14.832Z,1008.98
2018-07-12T01:10:14.829Z,1009.00
2018-07-12T01:11:14.829Z,1008.99
2018-07-12T01:12:14.827Z,1008.99
2018-07-12T01:13:14.830Z,1008.97
2018-07-12T01:14:14.828Z,1008.97
2018-07-12T01:15:14.829Z,1009.00
2018-07-12T01:16:14.829Z,1008.99
2018-07-12T01:17:14.835Z,1009.01
2018-07-12T01:18:14.829Z,1008.98
2018-07-12T01:19:14.829Z,1009.02
2018-07-12T01:20:14.831Z,1008.98
2018-07-12T01:21:14.830Z,1008.98
2018-07-12T01:22:14.831Z,1008.98
2018-07-12T01:23:14.835Z,1008.94
2018-07-12T01:24:14.833Z,1008.93
2018-07-12T01:25:14.834Z,1008.95
2018-07-12T01:26:14.835Z,1008.93
2018-07-12T01:27:14.831Z,1008.95
2018-07-12T01:28:14.832Z,1008.99
2018-07-12T01:29:14.831Z,1008.97
2018-07-12T01:30:14.834Z,1009.00
2018-07-12T01:31:14.832Z,1008.96
2018-07-12T01:32:14.833Z,1008.95
2018-07-12T01:33:14.833Z,1008.96
2018-07-12T01:34:14.834Z,1008.95
2018-07-12T01:35:14.834Z,1008.91
2018-07-12T01:36:14.923Z,1008.91
2018-07-12T01:37:14.836Z,1008.88
2018-07-12T01:38:14.837Z,1008.89
2018-07-12T01:39:14.835Z,1008.86
2018-07-12T01:40:14.837Z,1008.85
2018-07-12T01:41:14.840Z,1008.85
2018-07-12T01:42:14.833Z,1008.86
2018-07-12T01:43:14.835Z,1008.83
2018-07-12T01:44:14.837Z,1008.80
2018-07-12T01:45:14.836Z,1008.82
2018-07-12T01:46:14.838Z,1008.83
2018-07-12T01:47:14.837Z,1008.79
2018-07-12T01:48:14.838Z,1008.83
2018-07-12T01:49:14.842Z,1008.81
2018-07-12T01:50:14.839Z,1008.83
2018-07-12T01:51:14.838Z,1008.85
2018-07-12T01:52:14.842Z,1008.85
2018-07-12T01:53:14.840Z,1008.88
2018-07-12T01:54:14.840Z,1008.85
2018-07-12T01:55:14.840Z,1008.86
2018-07-12T01:56:14.841Z,1008.89
2018-07-12T01:57:14.843Z,1008.89
2018-07-12T01:58:14.841Z,1008.93
2018-07-12T01:59:14.844Z,1008.92
2018-07-12T02:00:14.841Z,1008.92
2018-07-12T02:01:14.841Z,1008.91
2018-07-12T02:02:14.843Z,1008.93
2018-07-12T02:03:14.844Z,1008.88
2018-07-12T02:04:14.842Z,1008.89
2018-07-12T02:05:14.845Z,1008.91
2018-07-12T02:06:14.842Z,1008.90
2018-07-12T02:07:14.844Z,1008.93
2018-07-12T02:08:14.844Z,1008.94
2018-07-12T02:09:14.845Z,1008.91
2018-07-12T02:10:14.843Z,1008.87
2018-07-12T02:11:14.844Z,1008.87
2018-07-12T02:12:14.844Z,1008.88
2018-07-12T02:13:14.845Z,1008.87
2018-07-12T02:14:14.846Z,1008.88
2018-07-12T02:15:14.844Z,1008.90
2018-07-12T02:16:14.846Z,1008.88
2018-07-12T02:17:14.849Z,1008.86
2018-07-12T02:18:14.849Z,1008.83
2018-07-12T02:19:14.846Z,1008.82
2018-07-12T02:20:14.850Z,1008.80
2018-07-12T02:21:14.848Z,1008.74
2018-07-12T02:22:14.846Z,1008.78
2018-07-12T02:23:14.847Z,1008.76
2018-07-12T02:24:14.846Z,1008.76
2018-07-12T02:25:14.847Z,1008.73
2018-07-12T02:26:14.852Z,1008.75
2018-07-12T02:27:14.848Z,1008.72
2018-07-12T02:28:14.846Z,1008.67
2018-07-12T02:29:14.847Z,1008.66
2018-07-12T02:30:14.848Z,1008.68
2018-07-12T02:31:14.846Z,1008.62
2018-07-12T02:32:14.845Z,1008.64
2018-07-12T02:33:14.848Z,1008.62
2018-07-12T02:34:14.851Z,1008.62
2018-07-12T02:35:14.854Z,1008.60
2018-07-12T02:36:14.848Z,1008.58
2018-07-12T02:37:14.846Z,1008.59
2018-07-12T02:38:14.846Z,1008.57
2018-07-12T02:39:14.850Z,1008.57
2018-07-12T02:40:14.846Z,1008.54
2018-07-12T02:41:14.850Z,1008.52
2018-07-12T02:42:14.846Z,1008.53
2018-07-12T02:43:14.846Z,1008.47
2018-07-12T02:44:14.844Z,1008.51
2018-07-12T02:45:14.844Z,1008.47
2018-07-12T02:46:14.845Z,1008.48
2018-07-12T02:47:14.844Z,1008.46
2018-07-12T02:48:14.845Z,1008.42
2018-07-12T02:49:14.842Z,1008.43
2018-07-12T02:50:14.844Z,1008.39
2018-07-12T02:51:14.844Z,1008.39
2018-07-12T02:52:14.842Z,1008.34
2018-07-12T02:53:14.847Z,1008.32
2018-07-12T02:54:14.843Z,1008.32
2018-07-12T02:55:14.843Z,1008.33
2018-07-12T02:56:14.853Z,1008.28
2018-07-12T02:57:14.844Z,1008.26
2018-07-12T02:58:14.843Z,1008.27
2018-07-12T02:59:14.842Z,1008.26
2018-07-12T03:00:14.837Z,1008.25
2018-07-12T03:01:14.836Z,1008.23
2018-07-12T03:02:14.843Z,1008.19
2018-07-12T03:03:14.839Z,1008.18
2018-07-12T03:04:14.842Z,1008.19
2018-07-12T03:05:14.843Z,1008.15
2018-07-12T03:06:14.843Z,1008.13
2018-07-12T03:07:14.840Z,1008.16
2018-07-12T03:08:14.842Z,1008.11
2018-07-12T03:09:14.839Z,1008.11
2018-07-12T03:10:14.841Z,1008.09
2018-07-12T03:11:14.837Z,1008.15
2018-07-12T03:12:14.838Z,1008.10
2018-07-12T03:13:14.838Z,1008.10
2018-07-12T03:14:14.843Z,1008.11
2018-07-12T03:15:14.836Z,1008.12
2018-07-12T03:16:14.833Z,1008.11
2018-07-12T03:17:14.836Z,1008.08
2018-07-12T03:18:14.836Z,1008.07
2018-07-12T03:19:14.836Z,1008.04
2018-07-12T03:20:14.836Z,1008.05
2018-07-12T03:21:14.840Z,1008.00
2018-07-12T03:22:14.834Z,1007.99
2018-07-12T03:23:14.834Z,1007.98
2018-07-12T03:24:14.837Z,1007.97
2018-07-12T03:25:14.840Z,1007.93
2018-07-12T03:26:14.834Z,1007.91
2018-07-12T03:27:14.833Z,1007.89
2018-07-12T03:28:14.829Z,1007.87
2018-07-12T03:29:14.832Z,1007.86
2018-07-12T03:30:14.836Z,1007.84
2018-07-12T03:31:14.829Z,1007.84
2018-07-12T03:32:14.831Z,1007.87
2018-07-12T03:33:14.832Z,1007.84
2018-07-12T03:34:14.831Z,1007.88
2018-07-12T03:35:14.830Z,1007.84
2018-07-12T03:36:14.830Z,1007.80
2018-07-12T03:37:14.830Z,1007.80
2018-07-12T03:38:14.834Z,1007.77
2018-07-12T03:39:14.831Z,1007.81
2018-07-12T03:40:14.829Z,1007.81
2018-07-12T03:41:14.828Z,1007.81
2018-07-12T03:42:14.829Z,1007.79
2018-07-12T03:43:14.830Z,1007.78
2018-07-12T03:44:14.827Z,1007.69
2018-07-12T03:45:14.838Z,1007.72
2018-07-12T03:46:14.827Z,1007.70
2018-07-12T03:47:14.825Z,1007.71
2018-07-12T03:48:14.826Z,1007.72
2018-07-12T03:49:14.826Z,1007.72
2018-07-12T03:50:14.824Z,1007.74
2018-07-12T03:51:14.824Z,1007.71
2018-07-12T03:52:14.822Z,1007.70
2018-07-12T03:53:14.825Z,1007.67
2018-07-12T03:54:14.826Z,1007.73
2018-07-12T03:55:14.825Z,1007.74
2018-07-12T03:56:14.822Z,1007.78
2018-07-12T03:57:14.822Z,1007.73
2018-07-12T03:58:14.822Z,1007.71
2018-07-12T03:59:14.816Z,1007.68
2018-07-12T04:00:14.819Z,1007.71
2018-07-12T04:01:14.819Z,1007.67
2018-07-12T04:02:14.821Z,1007.66
2018-07-12T04:03:14.816Z,1007.64
2018-07-12T04:04:14.818Z,1007.65
2018-07-12T04:05:14.819Z,1007.60
2018-07-12T04:06:14.819Z,1007.64
2018-07-12T04:07:14.817Z,1007.63
2018-07-12T04:08:14.822Z,1007.69
2018-07-12T04:09:14.816Z,1007.66
2018-07-12T04:10:14.813Z,1007.63
2018-07-12T04:11:14.810Z,1007.68
2018-07-12T04:12:14.817Z,1007.68
2018-07-12T04:13:14.812Z,1007.66
2018-07-12T04:14:14.812Z,1007.69
2018-07-12T04:15:14.810Z,1007.73
2018-07-12T04:16:14.818Z,1007.70
2018-07-12T04:17:14.835Z,1007.61
2018-07-12T04:18:14.809Z,1007.60
2018-07-12T04:19:14.809Z,1007.53
2018-07-12T04:20:14.808Z,1007.51
2018-07-12T04:21:14.817Z,1007.49
2018-07-12T04:22:14.813Z,1007.46
2018-07-12T04:23:14.807Z,1007.42
2018-07-12T04:24:14.808Z,1007.45
2018-07-12T04:25:14.807Z,1007.45
2018-07-12T04:26:14.804Z,1007.42
2018-07-12T04:27:14.802Z,1007.39
2018-07-12T04:28:14.803Z,1007.40
2018-07-12T04:29:14.804Z,1007.36
2018-07-12T04:30:14.804Z,1007.30
2018-07-12T04:31:14.803Z,1007.29
2018-07-12T04:32:14.803Z,1007.24
2018-07-12T04:33:14.803Z,1007.21
2018-07-12T04:34:14.800Z,1007.20
2018-07-12T04:35:14.803Z,1007.17
2018-07-12T04:36:14.803Z,1007.17
2018-07-12T04:37:14.800Z,1007.15
2018-07-12T04:38:14.798Z,1007.11
2018-07-12T04:39:14.797Z,1007.07
2018-07-12T04:40:14.797Z,1007.06
2018-07-12T04:41:14.797Z,1007.01
2018-07-12T04:42:14.796Z,1007.03
2018-07-12T04:43:14.795Z,1007.00
2018-07-12T04:44:14.798Z,1007.01
2018-07-12T04:45:14.797Z,1006.98
2018-07-12T04:46:14.796Z,1006.91
2018-07-12T04:47:14.795Z,1006.92
2018-07-12T04:48:14.792Z,1006.93
2018-07-12T04:49:14.790Z,1006.91
2018-07-12T04:50:14.794Z,1006.90
2018-07-12T04:51:14.794Z,1006.89
2018-07-12T04:52:14.789Z,1006.84
2018-07-12T04:53:14.790Z,1006.81
2018-07-12T04:54:14.787Z,1006.83
2018-07-12T04:55:14.787Z,1006.84
2018-07-12T04:56:14.788Z,1006.78
2018-07-12T04:57:14.792Z,1006.74
2018-07-12T04:58:14.861Z,1006.73
2018-07-12T04:59:14.787Z,1006.75
2018-07-12T05:00:14.801Z,1006.67
2018-07-12T05:01:14.789Z,1006.63
2018-07-12T05:02:14.795Z,1006.59
2018-07-12T05:03:14.783Z,1006.60
2018-07-12T05:04:14.781Z,1006.54
2018-07-12T05:05:14.782Z,1006.50
2018-07-12T05:06:14.780Z,1006.41
2018-07-12T05:07:14.780Z,1006.38
2018-07-12T05:08:14.877Z,1006.33
2018-07-12T05:09:14.778Z,1006.29
2018-07-12T05:10:14.778Z,1006.27
2018-07-12T05:11:14.777Z,1006.22
2018-07-12T05:12:14.779Z,1006.27
2018-07-12T05:13:14.776Z,1006.36
2018-07-12T05:14:14.775Z,1006.28
2018-07-12T05:15:14.773Z,1006.29
2018-07-12T05:16:14.830Z,1006.25
2018-07-12T05:17:14.774Z,1006.30
2018-07-12T05:18:14.774Z,1006.28
2018-07-12T05:19:14.776Z,1006.27
2018-07-12T05:20:14.771Z,1006.19
2018-07-12T05:21:14.769Z,1006.28
2018-07-12T05:22:14.772Z,1006.22
2018-07-12T05:23:14.772Z,1006.29
2018-07-12T05:24:14.769Z,1006.32
2018-07-12T05:25:14.768Z,1006.32
2018-07-12T05:26:14.765Z,1006.07
2018-07-12T05:27:14.768Z,1006.16
2018-07-12T05:28:14.766Z,1006.08
2018-07-12T05:29:14.766Z,1005.90
2018-07-12T05:30:14.766Z,1005.97
2018-07-12T05:31:14.764Z,1006.12
2018-07-12T05:32:14.764Z,1006.32
2018-07-12T05:33:14.771Z,1006.36
2018-07-12T05:34:14.763Z,1006.38
2018-07-12T05:35:14.762Z,1006.41
2018-07-12T05:36:14.762Z,1006.47
2018-07-12T05:37:14.762Z,1006.49
2018-07-12T05:38:14.763Z,1006.51
2018-07-12T05:39:14.763Z,1006.46
2018-07-12T05:40:14.763Z,1006.41
2018-07-12T05:41:14.761Z,1006.42
2018-07-12T05:42:14.759Z,1006.41
2018-07-12T05:43:14.758Z,1006.28
2018-07-12T05:44:14.757Z,1006.25
2018-07-12T05:45:14.758Z,1006.41
2018-07-12T05:46:14.760Z,1006.46
2018-07-12T05:47:14.756Z,1006.63
2018-07-12T05:48:14.760Z,1006.57
2018-07-12T05:49:14.755Z,1006.43
2018-07-12T05:50:14.759Z,1006.46
2018-07-12T05:51:14.753Z,1006.70
2018-07-12T05:52:14.753Z,1006.74
2018-07-12T05:53:14.754Z,1006.70
2018-07-12T05:54:14.754Z,1006.73
2018-07-12T05:55:14.752Z,1006.72
2018-07-12T05:56:14.752Z,1006.57
2018-07-12T05:57:14.752Z,1006.64
2018-07-12T05:58:14.751Z,1006.67
2018-07-12T05:59:14.750Z,1006.62
2018-07-12T06:00:14.756Z,1006.65
2018-07-12T06:01:14.751Z,1006.63
2018-07-12T06:02:14.752Z,1006.68
2018-07-12T06:03:14.749Z,1006.65
2018-07-12T06:04:14.750Z,1006.70
2018-07-12T06:05:14.749Z,1006.67
2018-07-12T06:06:14.746Z,1006.68
2018-07-12T06:07:14.752Z,1006.66
2018-07-12T06:08:14.747Z,1006.66
2018-07-12T06:09:14.749Z,1006.67
2018-07-12T06:10:14.747Z,1006.74
2018-07-12T06:11:14.749Z,1006.67
2018-07-12T06:12:14.748Z,1006.75
2018-07-12T06:13:14.762Z,1006.76
2018-07-12T06:14:14.750Z,1006.79
2018-07-12T06:15:14.747Z,1006.83
2018-07-12T06:16:14.749Z,1006.78
2018-07-12T06:17:14.749Z,1006.89
2018-07-12T06:18:14.750Z,1006.76
2018-07-12T06:19:14.748Z,1006.83
2018-07-12T06:20:14.749Z,1006.89
2018-07-12T06:21:14.747Z,1006.77
2018-07-12T06:22:14.747Z,1006.75
2018-07-12T06:23:14.747Z,1006.85
2018-07-12T06:24:14.747Z,1006.82
2018-07-12T06:25:14.747Z,1006.81
2018-07-12T06:26:14.746Z,1006.83
2018-07-12T06:27:14.748Z,1006.85
2018-07-12T06:28:14.749Z,1006.87
2018-07-12T06:29:14.751Z,1006.84
2018-07-12T06:30:14.746Z,1006.94
2018-07-12T06:31:14.747Z,1006.91
2018-07-12T06:32:14.746Z,1006.94
2018-07-12T06:33:14.748Z,1006.90
2018-07-12T06:34:14.746Z,1006.91
2018-07-12T06:35:14.745Z,1006.91
2018-07-12T06:36:14.746Z,1006.99
2018-07-12T06:37:14.767Z,1007.02
2018-07-12T06:38:14.747Z,1007.08
2018-07-12T06:39:14.745Z,1007.14
2018-07-12T06:40:14.746Z,1007.10
2018-07-12T06:41:14.745Z,1007.11
2018-07-12T06:42:14.750Z,1007.17
2018-07-12T06:43:14.743Z,1007.21
2018-07-12T06:44:14.750Z,1007.18
2018-07-12T06:45:14.748Z,1007.20
2018-07-12T06:46:14.749Z,1007.22
2018-07-12T06:47:14.748Z,1007.16
2018-07-12T06:48:14.749Z,1007.13
2018-07-12T06:49:14.747Z,1007.13
2018-07-12T06:50:14.747Z,1007.13
2018-07-12T06:51:14.747Z,1007.16
2018-07-12T06:52:14.746Z,1007.08
2018-07-12T06:53:14.745Z,1007.08
2018-07-12T06:54:14.749Z,1007.13
2018-07-12T06:55:14.747Z,1007.12
2018-07-12T06:56:14.748Z,1007.16
2018-07-12T06:57:14.747Z,1007.17
2018-07-12T06:58:14.747Z,1007.18
2018-07-12T06:59:14.748Z,1007.20
2018-07-12T07:00:14.749Z,1007.15
2018-07-12T07:01:14.751Z,1007.12
2018-07-12T07:02:14.750Z,1007.21
2018-07-12T07:03:14.752Z,1007.21
2018-07-12T07:04:14.750Z,1007.16
2018-07-12T07:05:14.751Z,1007.15
2018-07-12T07:06:14.750Z,1007.25
2018-07-12T07:07:14.747Z,1007.25
2018-07-12T07:08:14.750Z,1007.18
2018-07-12T07:09:14.750Z,1007.23
2018-07-12T07:10:14.749Z,1007.28
2018-07-12T07:11:14.749Z,1007.26
2018-07-12T07:12:14.750Z,1007.27
2018-07-12T07:13:14.752Z,1007.24
2018-07-12T07:14:14.753Z,1007.25
2018-07-12T07:15:14.752Z,1007.22
2018-07-12T07:16:14.756Z,1007.29
2018-07-12T07:17:14.752Z,1007.23
2018-07-12T07:18:14.752Z,1007.21
2018-07-12T07:19:14.751Z,1007.21
2018-07-12T07:20:14.827Z,1007.25
2018-07-12T07:21:14.752Z,1007.23
2018-07-12T07:22:14.752Z,1007.27
2018-07-12T07:23:14.751Z,1007.22
2018-07-12T07:24:14.755Z,1007.26
2018-07-12T07:25:14.756Z,1007.23
2018-07-12T07:26:14.810Z,1007.24
2018-07-12T07:27:14.754Z,1007.28
2018-07-12T07:28:14.753Z,1007.26
2018-07-12T07:29:14.755Z,1007.29
2018-07-12T07:30:14.755Z,1007.28
2018-07-12T07:31:14.754Z,1007.31
2018-07-12T07:32:14.755Z,1007.31
2018-07-12T07:33:14.761Z,1007.30
2018-07-12T07:34:14.756Z,1007.30
2018-07-12T07:35:14.755Z,1007.35
2018-07-12T07:36:14.757Z,1007.33
2018-07-12T07:37:14.760Z,1007.33
2018-07-12T07:38:14.756Z,1007.28
2018-07-12T07:39:14.756Z,1007.28
2018-07-12T07:40:14.758Z,1007.27
2018-07-12T07:41:14.759Z,1007.27
2018-07-12T07:42:14.757Z,1007.30
2018-07-12T07:43:14.954Z,1007.29
2018-07-12T07:44:14.758Z,1007.31
2018-07-12T07:46:14.759Z,1007.33
2018-07-12T07:47:14.759Z,1007.26
2018-07-12T07:48:14.761Z,1007.28
2018-07-12T07:49:14.820Z,1007.25
2018-07-12T07:50:14.762Z,1007.26
2018-07-12T07:51:14.762Z,1007.20
2018-07-12T07:52:14.761Z,1007.38
2018-07-12T07:53:14.762Z,1007.33
2018-07-12T07:54:14.761Z,1007.40
2018-07-12T07:55:14.765Z,1007.40
2018-07-12T07:56:14.764Z,1007.36
2018-07-12T07:57:14.764Z,1007.36
2018-07-12T07:58:14.762Z,1007.34
2018-07-12T07:59:14.767Z,1007.32
2018-07-12T08:00:14.764Z,1007.32
2018-07-12T08:01:14.766Z,1007.39
2018-07-12T08:02:14.762Z,1007.36
2018-07-12T08:03:14.791Z,1007.30
2018-07-12T08:04:14.765Z,1007.35
2018-07-12T08:05:14.766Z,1007.32
2018-07-12T08:06:14.769Z,1007.39
2018-07-12T08:07:14.767Z,1007.33
2018-07-12T08:08:14.765Z,1007.36
2018-07-12T08:09:14.768Z,1007.35
2018-07-12T08:10:14.766Z,1007.28
2018-07-12T08:11:14.766Z,1007.26
2018-07-12T08:12:14.769Z,1007.42
2018-07-12T08:13:14.769Z,1007.33
2018-07-12T08:14:14.767Z,1007.34
2018-07-12T08:15:14.768Z,1007.37
2018-07-12T08:16:14.812Z,1007.36
2018-07-12T08:17:14.771Z,1007.34
2018-07-12T08:18:14.768Z,1007.37
2018-07-12T08:19:14.768Z,1007.35
2018-07-12T08:20:14.771Z,1007.34
2018-07-12T08:21:14.776Z,1007.38
2018-07-12T08:22:14.772Z,1007.38
2018-07-12T08:23:14.769Z,1007.39
2018-07-12T08:24:14.770Z,1007.38
2018-07-12T08:25:14.770Z,1007.43
2018-07-12T08:26:14.767Z,1007.40
2018-07-12T08:27:14.770Z,1007.47
2018-07-12T08:28:14.769Z,1007.46
2018-07-12T08:29:14.771Z,1007.45
2018-07-12T08:30:14.769Z,1007.49
2018-07-12T08:31:14.815Z,1007.45
2018-07-12T08:32:14.771Z,1007.46
2018-07-12T08:33:14.787Z,1007.54
2018-07-12T08:34:14.769Z,1007.55
2018-07-12T08:35:14.775Z,1007.51
2018-07-12T08:36:14.792Z,1007.53
2018-07-12T08:37:14.776Z,1007.55
2018-07-12T08:38:14.771Z,1007.52
2018-07-12T08:39:14.771Z,1007.55
2018-07-12T08:40:14.771Z,1007.61
2018-07-12T08:41:14.773Z,1007.55
2018-07-12T08:42:14.769Z,1007.58
2018-07-12T08:43:14.769Z,1007.62
2018-07-12T08:44:14.768Z,1007.61
2018-07-12T08:45:14.772Z,1007.61
2018-07-12T08:46:14.804Z,1007.65
2018-07-12T08:47:14.772Z,1007.62
2018-07-12T08:48:14.772Z,1007.60
2018-07-12T08:49:14.776Z,1007.68
2018-07-12T08:50:14.773Z,1007.67
2018-07-12T08:51:14.778Z,1007.70
2018-07-12T08:52:14.768Z,1007.73
2018-07-12T08:53:14.850Z,1007.75
2018-07-12T08:54:14.772Z,1007.72
2018-07-12T08:55:14.771Z,1007.68
2018-07-12T08:56:14.773Z,1007.76
2018-07-12T08:57:14.772Z,1007.72
2018-07-12T08:58:14.777Z,1007.71
2018-07-12T08:59:14.771Z,1007.73
2018-07-12T09:00:14.777Z,1007.76
2018-07-12T09:01:14.776Z,1007.74
2018-07-12T09:02:14.775Z,1007.74
2018-07-12T09:03:14.775Z,1007.82
2018-07-12T09:04:14.778Z,1007.83
2018-07-12T09:05:14.778Z,1007.87
2018-07-12T09:06:14.781Z,1007.87
2018-07-12T09:07:14.788Z,1007.86
2018-07-12T09:08:14.778Z,1007.83
2018-07-12T09:09:14.780Z,1007.83
2018-07-12T09:10:14.778Z,1007.90
2018-07-12T09:11:14.779Z,1007.86
2018-07-12T09:12:14.779Z,1007.88
2018-07-12T09:13:14.778Z,1007.94
2018-07-12T09:14:14.780Z,1007.93
2018-07-12T09:15:14.780Z,1007.93
2018-07-12T09:16:14.787Z,1007.96
2018-07-12T09:17:14.785Z,1007.98
2018-07-12T09:18:14.799Z,1007.98
2018-07-12T09:19:14.785Z,1007.93
2018-07-12T09:20:14.787Z,1007.91
2018-07-12T09:21:14.789Z,1007.92
2018-07-12T09:22:14.789Z,1007.98
2018-07-12T09:23:14.798Z,1007.97
2018-07-12T09:24:14.790Z,1007.97
2018-07-12T09:25:14.797Z,1007.94
2018-07-12T09:26:14.796Z,1007.97
2018-07-12T09:27:14.791Z,1007.99
2018-07-12T09:28:14.800Z,1007.96
2018-07-12T09:29:14.845Z,1007.94
2018-07-12T09:30:14.796Z,1007.94
2018-07-12T09:31:14.795Z,1007.93
2018-07-12T09:32:14.798Z,1008.04
2018-07-12T09:33:14.799Z,1008.00
2018-07-12T09:34:14.799Z,1008.05
2018-07-12T09:35:14.801Z,1008.00
2018-07-12T09:36:14.802Z,1008.06
2018-07-12T09:37:14.804Z,1008.06
2018-07-12T09:38:14.802Z,1008.00
2018-07-12T09:39:14.804Z,1008.05
2018-07-12T09:40:14.806Z,1008.09
2018-07-12T09:41:14.808Z,1008.09
2018-07-12T09:42:14.807Z,1008.15
2018-07-12T09:43:14.808Z,1008.07
2018-07-12T09:44:14.807Z,1008.09
2018-07-12T09:45:14.811Z,1008.13
2018-07-12T09:46:14.809Z,1008.09
2018-07-12T09:47:14.833Z,1008.12
2018-07-12T09:48:14.820Z,1008.15
2018-07-12T09:49:15.001Z,1008.15
2018-07-12T09:50:14.813Z,1008.16
2018-07-12T09:51:14.813Z,1008.16
2018-07-12T09:52:14.814Z,1008.20
2018-07-12T09:53:14.817Z,1008.20
2018-07-12T09:54:14.816Z,1008.21
2018-07-12T09:55:14.817Z,1008.23
2018-07-12T09:56:14.949Z,1008.23
2018-07-12T09:57:14.817Z,1008.25
2018-07-12T09:58:14.818Z,1008.20
2018-07-12T09:59:14.823Z,1008.23
2018-07-12T10:00:14.821Z,1008.24
2018-07-12T10:01:14.834Z,1008.21
2018-07-12T10:02:14.822Z,1008.23
2018-07-12T10:03:14.825Z,1008.21
2018-07-12T10:04:14.830Z,1008.23
2018-07-12T10:05:14.825Z,1008.24
2018-07-12T10:06:14.825Z,1008.24
2018-07-12T10:07:14.826Z,1008.24
2018-07-12T10:08:14.826Z,1008.22
2018-07-12T10:09:14.828Z,1008.24
2018-07-12T10:10:14.827Z,1008.26
2018-07-12T10:11:14.828Z,1008.24
2018-07-12T10:12:14.829Z,1008.22
2018-07-12T10:13:14.833Z,1008.25
2018-07-12T10:14:14.831Z,1008.20
2018-07-12T10:15:14.834Z,1008.22
2018-07-12T10:16:14.838Z,1008.24
2018-07-12T10:17:14.832Z,1008.21
2018-07-12T10:18:14.834Z,1008.24
2018-07-12T10:19:14.834Z,1008.26
2018-07-12T10:20:14.833Z,1008.31
2018-07-12T10:21:14.836Z,1008.29
2018-07-12T10:22:14.832Z,1008.27
2018-07-12T10:23:14.837Z,1008.31
2018-07-12T10:24:14.839Z,1008.31
2018-07-12T10:25:14.839Z,1008.30
2018-07-12T10:26:14.839Z,1008.34
2018-07-12T10:27:14.851Z,1008.28
2018-07-12T10:28:14.843Z,1008.29
2018-07-12T10:29:14.843Z,1008.34
2018-07-12T10:30:14.840Z,1008.30
2018-07-12T10:31:14.844Z,1008.32
2018-07-12T10:32:14.849Z,1008.35
2018-07-12T10:33:14.857Z,1008.30
2018-07-12T10:34:14.847Z,1008.35
2018-07-12T10:35:14.849Z,1008.37
2018-07-12T10:36:14.850Z,1008.38
2018-07-12T10:37:14.855Z,1008.42
2018-07-12T10:38:14.850Z,1008.44
2018-07-12T10:39:14.852Z,1008.48
2018-07-12T10:40:14.859Z,1008.43
2018-07-12T10:41:14.854Z,1008.51
2018-07-12T10:42:14.858Z,1008.53
2018-07-12T10:43:14.859Z,1008.55
2018-07-12T10:44:14.857Z,1008.54
2018-07-12T10:45:14.864Z,1008.59
2018-07-12T10:46:14.860Z,1008.58
2018-07-12T10:47:14.863Z,1008.60
2018-07-12T10:48:14.864Z,1008.58
2018-07-12T10:49:14.863Z,1008.62
2018-07-12T10:50:14.864Z,1008.61
2018-07-12T10:51:14.868Z,1008.68
2018-07-12T10:52:14.869Z,1008.61
2018-07-12T10:53:14.868Z,1008.66
2018-07-12T10:54:14.874Z,1008.63
2018-07-12T10:55:14.870Z,1008.67
2018-07-12T10:56:14.870Z,1008.69
2018-07-12T10:57:14.875Z,1008.73
2018-07-12T10:58:14.869Z,1008.69
2018-07-12T10:59:14.874Z,1008.68
2018-07-12T11:00:14.877Z,1008.74
2018-07-12T11:01:14.879Z,1008.70
2018-07-12T11:02:14.879Z,1008.71
2018-07-12T11:03:14.880Z,1008.74
2018-07-12T11:04:14.882Z,1008.72
2018-07-12T11:05:14.886Z,1008.77
2018-07-12T11:06:14.886Z,1008.79
2018-07-12T11:07:14.888Z,1008.76
2018-07-12T11:08:14.887Z,1008.81
2018-07-12T11:09:14.928Z,1008.75
2018-07-12T11:10:14.897Z,1008.75
2018-07-12T11:11:14.892Z,1008.76
2018-07-12T11:12:14.895Z,1008.76
2018-07-12T11:13:14.897Z,1008.77
2018-07-12T11:14:14.896Z,1008.74
2018-07-12T11:15:14.897Z,1008.75
2018-07-12T11:16:14.899Z,1008.76
2018-07-12T11:17:14.900Z,1008.77
2018-07-12T11:18:14.904Z,1008.76
2018-07-12T11:19:14.903Z,1008.83
2018-07-12T11:20:14.908Z,1008.74
2018-07-12T11:21:14.955Z,1008.75
2018-07-12T11:22:14.910Z,1008.76
2018-07-12T11:23:14.912Z,1008.74
2018-07-12T11:24:14.915Z,1008.78
2018-07-12T11:25:14.922Z,1008.81
2018-07-12T11:26:14.917Z,1008.76
2018-07-12T11:27:14.923Z,1008.78
2018-07-12T11:28:14.943Z,1008.80
2018-07-12T11:29:14.926Z,1008.71
2018-07-12T11:30:14.967Z,1008.76
2018-07-12T11:31:14.934Z,1008.72
2018-07-12T11:32:14.931Z,1008.73
2018-07-12T11:33:14.933Z,1008.71
2018-07-12T11:34:14.936Z,1008.79
2018-07-12T11:35:14.939Z,1008.79
2018-07-12T11:36:14.974Z,1008.79
2018-07-12T11:37:14.945Z,1008.85
2018-07-12T11:38:14.944Z,1008.76
2018-07-12T11:39:14.947Z,1008.81
2018-07-12T11:40:14.953Z,1008.81
2018-07-12T11:41:14.949Z,1008.84
2018-07-12T11:42:14.950Z,1008.86
2018-07-12T11:43:14.955Z,1008.86
2018-07-12T11:44:14.957Z,1008.85
2018-07-12T11:45:14.960Z,1008.88
2018-07-12T11:46:14.962Z,1008.87
2018-07-12T11:47:14.964Z,1008.90
2018-07-12T11:48:14.966Z,1008.93
2018-07-12T11:49:14.969Z,1008.94
2018-07-12T11:50:14.972Z,1008.93
2018-07-12T11:51:14.973Z,1008.94
2018-07-12T11:52:14.984Z,1008.87
2018-07-12T11:53:14.980Z,1008.89
2018-07-12T11:54:14.985Z,1008.90
2018-07-12T11:55:14.981Z,1008.86
2018-07-12T11:56:14.986Z,1008.88
2018-07-12T11:57:14.988Z,1008.89
2018-07-12T11:58:14.990Z,1008.87
2018-07-12T11:59:14.993Z,1008.85
2018-07-12T12:00:14.993Z,1008.85
2018-07-12T12:01:15.052Z,1008.84
2018-07-12T12:02:14.998Z,1008.82
2018-07-12T12:03:14.999Z,1008.84
2018-07-12T12:04:15.005Z,1008.82
2018-07-12T12:05:15.007Z,1008.82
2018-07-12T12:06:15.008Z,1008.91